Time;durP1;ratioP1;P1;durP2;ratioP2;P2;SDS_P1;SDS_P2;PMS_P1;PMS_P2;Temp;Humidity;BMP_temperature;BMP_pressure;BME280_temperature;BME280_humidity;BME280_pressure;Samples;Min_cycle;Max_cycle;Signal;HPM_P1;HPM_P2
2022/03/27 00:06:59;;;;;;;12.02;6.95;;;4.00;61.90;;;;;;20678859;28;20038;-60
2022/03/27 00:17:01;;;;;;;10.95;6.70;;;3.90;61.90;;;;;;20641730;28;20343;-58
2022/03/27 00:27:04;;;;;;;11.27;6.07;;;4.10;60.90;;;;;;20661373;28;20088;-58
2022/03/27 00:37:06;;;;;;;12.32;6.30;;;4.00;60.90;;;;;;20643893;28;20043;-59
2022/03/27 00:47:09;;;;;;;12.07;6.50;;;3.70;62.90;;;;;;20643416;28;20061;-47
2022/03/27 00:57:11;;;;;;;12.25;6.60;;;3.50;63.00;;;;;;20674744;28;20062;-48
2022/03/27 01:07:18;;;;;;;11.80;6.38;;;3.30;63.10;;;;;;20657687;28;20096;-46
2022/03/27 01:17:25;;;;;;;12.60;6.20;;;3.30;63.70;;;;;;20673650;28;20026;-47
2022/03/27 01:27:30;;;;;;;12.10;6.30;;;3.20;63.30;;;;;;20672822;28;20034;-47
2022/03/27 01:37:32;;;;;;;11.98;6.70;;;3.10;64.30;;;;;;20656404;28;20361;-45
2022/03/27 01:47:36;;;;;;;12.48;6.88;;;3.10;65.30;;;;;;20639022;28;20399;-47
2022/03/27 01:57:41;;;;;;;11.50;6.78;;;3.00;64.70;;;;;;20670820;28;20555;-50
2022/03/27 02:07:45;;;;;;;13.48;7.10;;;3.00;64.50;;;;;;20670993;28;20486;-46
2022/03/27 02:17:48;;;;;;;12.75;7.03;;;3.00;64.90;;;;;;20670737;28;20096;-47
2022/03/27 02:27:52;;;;;;;12.50;7.22;;;3.00;65.30;;;;;;20653190;28;20038;-45
2022/03/27 02:37:54;;;;;;;15.40;7.78;;;3.40;64.30;;;;;;20669249;28;20146;-45
2022/03/27 02:47:58;;;;;;;15.30;8.27;;;3.20;65.80;;;;;;20660750;28;20104;-45
2022/03/27 02:58:01;;;;;;;17.42;8.10;;;3.00;67.20;;;;;;20683811;28;20043;-47
2022/03/27 03:08:04;;;;;;;16.70;7.97;;;2.80;66.90;;;;;;20667141;28;20034;-52
2022/03/27 03:18:11;;;;;;;14.48;7.72;;;2.90;66.90;;;;;;20682681;28;20479;-46
2022/03/27 03:28:14;;;;;;;16.50;8.55;;;2.80;67.50;;;;;;20665349;28;20089;-48
2022/03/27 03:38:16;;;;;;;11.77;6.82;;;2.80;67.00;;;;;;20681312;28;20573;-49
2022/03/27 03:48:20;;;;;;;13.18;7.38;;;2.80;65.60;;;;;;20664912;28;20034;-47
2022/03/27 03:58:22;;;;;;;12.90;7.28;;;2.90;64.70;;;;;;20679622;28;20031;-46
2022/03/27 04:08:25;;;;;;;14.48;8.20;;;3.10;65.00;;;;;;20680634;28;20470;-45
2022/03/27 04:18:28;;;;;;;15.70;7.97;;;3.20;64.90;;;;;;20677797;28;20401;-46
2022/03/27 04:28:31;;;;;;;15.23;7.90;;;3.00;66.40;;;;;;20677203;28;20030;-46
2022/03/27 04:38:33;;;;;;;15.25;8.98;;;2.70;67.70;;;;;;20676317;28;20113;-46
2022/03/27 04:48:36;;;;;;;12.48;7.78;;;2.70;66.00;;;;;;20643282;28;20077;-49
2022/03/27 04:58:38;;;;;;;18.98;8.38;;;3.10;65.30;;;;;;20674937;28;20030;-45
2022/03/27 05:08:44;;;;;;;14.23;7.80;;;3.10;66.30;;;;;;20674688;28;20556;-47
2022/03/27 05:18:47;;;;;;;12.75;7.40;;;2.90;66.90;;;;;;20674656;28;20046;-45
2022/03/27 05:28:50;;;;;;;13.00;6.70;;;2.70;68.10;;;;;;20672660;28;20034;-46
2022/03/27 05:38:52;;;;;;;13.25;6.47;;;2.60;68.00;;;;;;20672235;28;20584;-45
2022/03/27 05:48:55;;;;;;;14.45;7.30;;;2.80;67.90;;;;;;20656216;28;20042;-47
2022/03/27 05:58:57;;;;;;;12.15;6.20;;;3.00;66.70;;;;;;20671090;28;20038;-50
2022/03/27 06:08:59;;;;;;;11.30;6.65;;;3.20;66.30;;;;;;20656181;28;20489;-45
2022/03/27 06:19:02;;;;;;;19.08;9.88;;;3.40;66.50;;;;;;20671813;28;20445;-46
2022/03/27 06:29:09;;;;;;;17.33;10.13;;;4.00;66.40;;;;;;20686156;28;20394;-48
2022/03/27 06:39:11;;;;;;;17.20;9.77;;;4.60;65.90;;;;;;20685392;28;20050;-47
2022/03/27 06:49:14;;;;;;;19.25;9.95;;;5.00;66.90;;;;;;20685067;28;20444;-46
2022/03/27 06:59:17;;;;;;;20.98;10.10;;;5.20;66.00;;;;;;20684235;28;20497;-47
2022/03/27 07:09:19;;;;;;;19.05;10.20;;;6.40;63.20;;;;;;20650861;28;20069;-46
2022/03/27 07:19:22;;;;;;;20.42;10.13;;;7.80;61.50;;;;;;20682437;28;20042;-46
2022/03/27 07:29:25;;;;;;;11.63;6.75;;;8.90;57.40;;;;;;20649766;28;20038;-48
2022/03/27 07:39:28;;;;;;;8.32;5.43;;;9.80;50.60;;;;;;20680929;28;20567;-48
2022/03/27 07:49:30;;;;;;;8.55;5.10;;;10.90;47.80;;;;;;20647352;28;20394;-47
2022/03/27 07:59:33;;;;;;;7.45;4.85;;;12.00;48.80;;;;;;20646896;28;20038;-46
2022/03/27 08:09:36;;;;;;;9.65;6.18;;;12.70;43.90;;;;;;20679805;28;20108;-46
2022/03/27 08:19:39;;;;;;;8.00;5.28;;;13.40;44.20;;;;;;20677695;28;20394;-46
2022/03/27 08:29:43;;;;;;;8.52;5.18;;;13.10;44.30;;;;;;20644302;28;20104;-48
2022/03/27 08:39:46;;;;;;;8.40;4.85;;;13.80;43.30;;;;;;20675974;28;20077;-53
2022/03/27 08:50:00;;;;;;;7.47;4.65;;;14.40;44.20;;;;;;20658971;28;20034;-54
2022/03/27 09:00:04;;;;;;;7.88;4.80;;;14.40;43.30;;;;;;20674281;28;20525;-53
2022/03/27 09:10:11;;;;;;;6.47;4.13;;;14.70;42.70;;;;;;20672754;28;20065;-49
2022/03/27 09:20:14;;;;;;;7.35;4.78;;;15.20;42.70;;;;;;20672909;28;20038;-48
2022/03/27 09:30:18;;;;;;;10.45;5.35;;;15.50;40.80;;;;;;20671410;28;20089;-48
2022/03/27 09:40:20;;;;;;;8.43;5.25;;;15.90;43.30;;;;;;20670634;28;20078;-48
2022/03/27 09:50:35;;;;;;;6.78;4.75;;;16.50;40.60;;;;;;20566000;28;20121;-48
2022/03/27 10:00:42;;;;;;;9.55;6.00;;;16.50;40.30;;;;;;20565985;28;20439;-53
2022/03/27 10:10:48;;;;;;;8.35;5.80;;;16.70;41.50;;;;;;20533578;28;20078;-49
2022/03/27 10:20:57;;;;;;;12.50;7.22;;;17.30;42.90;;;;;;20548377;28;20073;-54
2022/03/27 10:31:00;;;;;;;8.80;6.57;;;17.40;42.20;;;;;;20598057;28;20101;-55
2022/03/27 10:41:37;;;;;;;12.82;7.75;;;17.40;42.50;;;;;;20668784;28;20054;-51
2022/03/27 10:51:43;;;;;;;12.00;8.48;;;17.40;42.70;;;;;;20668702;28;20042;-54
2022/03/27 11:01:52;;;;;;;13.65;8.98;;;17.70;45.90;;;;;;20668834;28;20103;-55
2022/03/27 11:11:56;;;;;;;13.65;8.00;;;17.70;43.10;;;;;;20680416;28;20086;-54
2022/03/27 11:22:00;;;;;;;13.43;8.98;;;17.70;45.40;;;;;;20682852;28;20034;-54
2022/03/27 11:32:08;;;;;;;16.27;8.98;;;17.60;45.50;;;;;;20681700;28;20046;-50
2022/03/27 11:42:31;;;;;;;13.90;8.77;;;17.80;44.70;;;;;;20680503;28;20050;-53
2022/03/27 11:52:34;;;;;;;13.60;8.38;;;18.30;44.90;;;;;;20647961;28;20042;-55
2022/03/27 12:02:56;;;;;;;17.17;10.13;;;18.50;45.50;;;;;;20679346;28;20046;-50
2022/03/27 12:13:02;;;;;;;16.08;9.45;;;18.60;45.30;;;;;;20678363;28;20069;-55
2022/03/27 12:23:17;;;;;;;17.88;10.50;;;18.50;44.80;;;;;;20676753;28;20450;-48
2022/03/27 12:33:23;;;;;;;20.80;11.88;;;18.30;44.30;;;;;;20677120;28;20448;-50
2022/03/27 12:43:28;;;;;;;21.75;10.73;;;18.00;46.70;;;;;;20663938;28;20042;-50
2022/03/27 12:53:31;;;;;;;20.40;12.48;;;18.20;47.30;;;;;;20672118;28;20367;-54
2022/03/27 13:03:35;;;;;;;20.65;11.38;;;18.30;46.80;;;;;;20659136;28;20034;-50
2022/03/27 13:13:40;;;;;;;17.17;11.68;;;18.30;47.70;;;;;;20673944;28;20042;-51
2022/03/27 13:23:43;;;;;;;19.23;12.00;;;18.40;47.50;;;;;;20657774;28;20576;-49
2022/03/27 13:33:48;;;;;;;22.90;13.80;;;18.10;48.20;;;;;;20657136;28;20050;-52
2022/03/27 13:43:52;;;;;;;20.17;13.30;;;18.00;48.70;;;;;;20671816;28;20088;-56
2022/03/27 13:53:54;;;;;;;22.85;12.77;;;17.90;47.90;;;;;;20656144;28;20096;-56
2022/03/27 14:03:57;;;;;;;17.17;11.38;;;17.50;48.60;;;;;;20670615;28;20101;-51
2022/03/27 14:14:00;;;;;;;21.33;12.35;;;17.50;47.30;;;;;;20655061;28;20045;-56
2022/03/27 14:24:03;;;;;;;18.35;11.55;;;17.00;46.40;;;;;;20671016;28;20038;-47
2022/03/27 14:34:06;;;;;;;16.88;10.70;;;16.70;47.80;;;;;;20651408;28;20046;-55
2022/03/27 14:44:09;;;;;;;16.95;10.05;;;16.50;46.40;;;;;;20668130;28;20485;-54
2022/03/27 15:04:33;;;;;;;18.23;10.27;;;15.30;47.60;;;;;;20642687;28;20066;-52
2022/03/27 15:14:36;;;;;;;15.70;9.43;;;14.70;47.60;;;;;;20642060;28;20429;-53
2022/03/27 15:24:39;;;;;;;19.80;11.32;;;14.10;48.70;;;;;;20659901;28;20540;-53
2022/03/27 15:34:42;;;;;;;16.75;10.80;;;13.40;51.20;;;;;;20674560;28;20051;-52
2022/03/27 15:44:46;;;;;;;19.35;12.10;;;13.00;52.80;;;;;;20679337;28;20034;-47
2022/03/27 15:54:48;;;;;;;24.05;12.48;;;12.60;54.20;;;;;;20647416;28;20116;-47
2022/03/27 16:04:51;;;;;;;21.42;11.80;;;12.10;55.60;;;;;;20680709;28;20470;-49
2022/03/27 16:14:53;;;;;;;25.15;13.60;;;11.50;57.20;;;;;;20675424;28;20560;-50
2022/03/27 16:24:56;;;;;;;22.27;12.02;;;10.70;58.70;;;;;;20677587;28;20097;-49
2022/03/27 16:34:59;;;;;;;22.95;13.18;;;10.10;60.40;;;;;;20661858;28;20050;-49
2022/03/27 16:45:03;;;;;;;23.88;12.85;;;9.50;62.80;;;;;;20663719;28;20038;-47
2022/03/27 16:55:07;;;;;;;29.05;14.77;;;8.90;64.20;;;;;;20675969;28;20034;-46
2022/03/27 17:05:10;;;;;;;28.67;13.95;;;8.40;65.80;;;;;;20674185;28;20034;-46
2022/03/27 17:15:13;;;;;;;27.17;13.65;;;7.90;66.50;;;;;;20657455;28;20046;-48
2022/03/27 17:25:20;;;;;;;31.90;16.10;;;7.50;67.10;;;;;;20658340;28;20046;-46
2022/03/27 17:35:24;;;;;;;27.70;13.70;;;7.20;67.70;;;;;;20672612;28;20050;-49
2022/03/27 17:45:28;;;;;;;28.58;14.98;;;7.10;68.30;;;;;;20655365;28;20039;-48
2022/03/27 17:55:30;;;;;;;27.77;14.45;;;6.50;69.50;;;;;;20671427;28;20077;-46
2022/03/27 18:05:37;;;;;;;29.38;14.55;;;5.90;72.10;;;;;;20672967;28;20029;-47
2022/03/27 18:15:40;;;;;;;32.10;15.18;;;5.50;73.60;;;;;;20670287;28;20477;-46
2022/03/27 18:25:45;;;;;;;35.13;18.90;;;5.10;74.60;;;;;;20669530;28;20100;-46
2022/03/27 18:35:48;;;;;;;28.17;15.25;;;4.80;76.20;;;;;;20669605;28;20410;-46
2022/03/27 18:45:52;;;;;;;27.83;15.07;;;4.70;77.90;;;;;;20669071;28;20034;-47
2022/03/27 18:55:55;;;;;;;32.13;15.75;;;4.50;78.80;;;;;;20652685;28;20030;-46
2022/03/27 19:05:59;;;;;;;30.67;15.93;;;4.60;79.50;;;;;;20565188;28;20046;-47
2022/03/27 19:16:07;;;;;;;28.48;16.15;;;4.80;79.20;;;;;;20563301;28;20047;-47
2022/03/27 19:26:12;;;;;;;30.20;15.75;;;4.70;80.20;;;;;;20548728;28;20391;-45
2022/03/27 19:36:16;;;;;;;33.22;15.05;;;4.50;81.10;;;;;;20576318;28;20042;-45
2022/03/27 19:46:20;;;;;;;33.83;16.55;;;4.30;81.50;;;;;;20575883;28;20066;-46
2022/03/27 19:56:22;;;;;;;27.95;14.38;;;4.30;81.80;;;;;;20577704;28;20424;-47
2022/03/27 20:06:26;;;;;;;29.48;15.30;;;4.20;81.10;;;;;;20680602;28;20039;-46
2022/03/27 20:16:28;;;;;;;32.35;15.35;;;4.20;80.60;;;;;;20678532;28;20097;-45
2022/03/27 20:26:31;;;;;;;30.27;15.75;;;4.20;80.20;;;;;;20677574;28;20038;-44
2022/03/27 20:36:34;;;;;;;28.13;15.57;;;4.50;79.40;;;;;;20676367;28;20182;-44
2022/03/27 20:46:37;;;;;;;29.83;16.02;;;4.40;80.60;;;;;;20676034;28;20097;-44
2022/03/27 20:56:39;;;;;;;31.58;15.35;;;4.30;81.20;;;;;;20675271;28;20042;-46
2022/03/27 21:06:42;;;;;;;30.05;14.82;;;4.20;81.80;;;;;;20674369;28;20034;-48
2022/03/27 21:16:45;;;;;;;27.95;12.80;;;4.10;80.40;;;;;;20641790;28;20042;-45
2022/03/27 21:26:48;;;;;;;22.92;11.48;;;4.00;79.20;;;;;;20673125;28;20042;-45
2022/03/27 21:36:52;;;;;;;24.48;11.68;;;3.80;77.90;;;;;;20673039;28;20107;-46
2022/03/27 21:46:56;;;;;;;28.98;15.25;;;3.80;78.00;;;;;;20655430;28;20042;-48
2022/03/27 21:56:59;;;;;;;30.80;15.38;;;3.70;80.40;;;;;;20638573;28;20034;-45
2022/03/27 22:07:03;;;;;;;26.75;14.05;;;3.60;82.60;;;;;;20655478;28;20394;-44
2022/03/27 22:17:06;;;;;;;26.13;13.55;;;3.40;81.60;;;;;;20670111;28;20437;-45
2022/03/27 22:27:09;;;;;;;21.45;12.05;;;3.20;79.90;;;;;;20637151;28;20096;-45
2022/03/27 22:37:12;;;;;;;21.60;11.60;;;3.30;77.50;;;;;;20669179;28;20055;-45
2022/03/27 22:47:15;;;;;;;21.00;11.20;;;3.10;76.60;;;;;;20669187;28;20066;-45
2022/03/27 22:57:18;;;;;;;20.42;10.55;;;3.10;75.00;;;;;;20668926;28;20406;-44
2022/03/27 23:07:20;;;;;;;16.80;10.10;;;3.20;73.80;;;;;;20680238;28;20119;-46
2022/03/27 23:17:23;;;;;;;19.25;11.88;;;3.10;72.20;;;;;;20683113;28;20039;-46
2022/03/27 23:27:26;;;;;;;20.77;10.05;;;3.10;71.10;;;;;;20682281;28;20486;-44
2022/03/27 23:37:29;;;;;;;18.27;10.07;;;3.40;70.40;;;;;;20682094;28;20070;-48
2022/03/27 23:47:33;;;;;;;18.90;9.65;;;3.20;70.40;;;;;;20681452;28;20046;-44
2022/03/27 23:57:36;;;;;;;17.38;9.88;;;3.00;71.10;;;;;;20663945;28;20093;-44
